sensor_id;sensor_type;location;lat;lon;timestamp;P1;durP1;ratioP1;P2;durP2;ratioP2
9234;SDS011;4652;42.716;23.218;2023-07-31T00:09:25;4.87;;;4.40;;
9234;SDS011;4652;42.716;23.218;2023-07-31T00:16:25;5.13;;;4.73;;
9234;SDS011;4652;42.716;23.218;2023-07-31T00:23:26;6.13;;;5.47;;
9234;SDS011;4652;42.716;23.218;2023-07-31T00:30:43;7.60;;;7.00;;
9234;SDS011;4652;42.716;23.218;2023-07-31T00:37:43;9.90;;;8.93;;
9234;SDS011;4652;42.716;23.218;2023-07-31T00:44:44;11.03;;;10.13;;
9234;SDS011;4652;42.716;23.218;2023-07-31T00:58:45;13.00;;;11.90;;
9234;SDS011;4652;42.716;23.218;2023-07-31T01:27:53;19.20;;;17.30;;
9234;SDS011;4652;42.716;23.218;2023-07-31T01:35:13;21.57;;;19.53;;
9234;SDS011;4652;42.716;23.218;2023-07-31T01:42:13;21.77;;;19.77;;
9234;SDS011;4652;42.716;23.218;2023-07-31T01:56:51;23.07;;;20.67;;
9234;SDS011;4652;42.716;23.218;2023-07-31T02:03:32;23.60;;;21.33;;
9234;SDS011;4652;42.716;23.218;2023-07-31T02:24:51;24.80;;;22.47;;
9234;SDS011;4652;42.716;23.218;2023-07-31T03:09:02;24.93;;;22.53;;
9234;SDS011;4652;42.716;23.218;2023-07-31T03:16:01;25.30;;;22.90;;
9234;SDS011;4652;42.716;23.218;2023-07-31T03:37:56;26.53;;;23.60;;
9234;SDS011;4652;42.716;23.218;2023-07-31T03:45:14;26.87;;;24.27;;
9234;SDS011;4652;42.716;23.218;2023-07-31T03:51:57;27.27;;;24.47;;
9234;SDS011;4652;42.716;23.218;2023-07-31T04:06:16;27.37;;;24.50;;
9234;SDS011;4652;42.716;23.218;2023-07-31T04:13:17;26.97;;;24.27;;
9234;SDS011;4652;42.716;23.218;2023-07-31T04:20:35;27.33;;;24.57;;
9234;SDS011;4652;42.716;23.218;2023-07-31T04:56:50;23.20;;;21.07;;
9234;SDS011;4652;42.716;23.218;2023-07-31T05:10:53;19.03;;;17.37;;
9234;SDS011;4652;42.716;23.218;2023-07-31T05:18:11;19.27;;;17.67;;
9234;SDS011;4652;42.716;23.218;2023-07-31T05:32:30;13.37;;;12.10;;
9234;SDS011;4652;42.716;23.218;2023-07-31T05:39:48;11.80;;;10.80;;
9234;SDS011;4652;42.716;23.218;2023-07-31T05:46:49;11.00;;;10.03;;
9234;SDS011;4652;42.716;23.218;2023-07-31T06:00:31;7.90;;;7.10;;
9234;SDS011;4652;42.716;23.218;2023-07-31T06:07:50;7.03;;;6.53;;
9234;SDS011;4652;42.716;23.218;2023-07-31T06:15:08;6.25;;;5.82;;
9234;SDS011;4652;42.716;23.218;2023-07-31T06:29:46;6.07;;;5.07;;
9234;SDS011;4652;42.716;23.218;2023-07-31T06:36:46;4.82;;;4.43;;
9234;SDS011;4652;42.716;23.218;2023-07-31T06:50:49;4.68;;;4.38;;
9234;SDS011;4652;42.716;23.218;2023-07-31T06:57:31;4.60;;;4.30;;
9234;SDS011;4652;42.716;23.218;2023-07-31T07:11:33;3.50;;;3.20;;
9234;SDS011;4652;42.716;23.218;2023-07-31T07:18:32;3.25;;;3.05;;
9234;SDS011;4652;42.716;23.218;2023-07-31T07:25:32;3.25;;;3.05;;
9234;SDS011;4652;42.716;23.218;2023-07-31T07:39:52;3.05;;;2.70;;
9234;SDS011;4652;42.716;23.218;2023-07-31T07:47:10;3.20;;;3.00;;
9234;SDS011;4652;42.716;23.218;2023-07-31T07:53:52;3.72;;;3.20;;
9234;SDS011;4652;42.716;23.218;2023-07-31T08:00:35;3.67;;;3.38;;
9234;SDS011;4652;42.716;23.218;2023-07-31T08:07:17;3.70;;;3.40;;
9234;SDS011;4652;42.716;23.218;2023-07-31T08:13:59;3.33;;;3.03;;
9234;SDS011;4652;42.716;23.218;2023-07-31T08:20:43;3.30;;;3.10;;
9234;SDS011;4652;42.716;23.218;2023-07-31T08:27:25;3.35;;;3.15;;
9234;SDS011;4652;42.716;23.218;2023-07-31T08:34:06;3.03;;;2.83;;
9234;SDS011;4652;42.716;23.218;2023-07-31T08:40:50;4.05;;;3.13;;
9234;SDS011;4652;42.716;23.218;2023-07-31T08:47:32;3.20;;;3.00;;
9234;SDS011;4652;42.716;23.218;2023-07-31T08:54:14;3.55;;;2.70;;
9234;SDS011;4652;42.716;23.218;2023-07-31T09:00:57;3.67;;;3.28;;
9234;SDS011;4652;42.716;23.218;2023-07-31T09:07:42;3.75;;;2.83;;
9234;SDS011;4652;42.716;23.218;2023-07-31T09:14:27;3.35;;;3.08;;
9234;SDS011;4652;42.716;23.218;2023-07-31T09:21:10;3.35;;;3.08;;
9234;SDS011;4652;42.716;23.218;2023-07-31T09:27:53;3.20;;;2.90;;
9234;SDS011;4652;42.716;23.218;2023-07-31T09:34:38;3.90;;;3.47;;
9234;SDS011;4652;42.716;23.218;2023-07-31T09:41:21;5.47;;;4.38;;
9234;SDS011;4652;42.716;23.218;2023-07-31T09:48:03;4.00;;;2.60;;
9234;SDS011;4652;42.716;23.218;2023-07-31T09:54:49;3.00;;;2.60;;
9234;SDS011;4652;42.716;23.218;2023-07-31T10:01:32;2.42;;;2.22;;
9234;SDS011;4652;42.716;23.218;2023-07-31T10:08:15;2.55;;;2.35;;
9234;SDS011;4652;42.716;23.218;2023-07-31T10:14:59;4.22;;;2.40;;
9234;SDS011;4652;42.716;23.218;2023-07-31T10:21:43;2.70;;;2.50;;
9234;SDS011;4652;42.716;23.218;2023-07-31T10:28:25;2.83;;;2.30;;
9234;SDS011;4652;42.716;23.218;2023-07-31T10:35:08;2.42;;;2.00;;
9234;SDS011;4652;42.716;23.218;2023-07-31T10:41:52;2.40;;;2.20;;
9234;SDS011;4652;42.716;23.218;2023-07-31T10:48:35;2.22;;;2.13;;
9234;SDS011;4652;42.716;23.218;2023-07-31T10:55:25;2.00;;;1.90;;
9234;SDS011;4652;42.716;23.218;2023-07-31T11:02:10;2.45;;;2.28;;
9234;SDS011;4652;42.716;23.218;2023-07-31T11:09:06;2.00;;;1.90;;
9234;SDS011;4652;42.716;23.218;2023-07-31T11:15:48;2.38;;;2.10;;
9234;SDS011;4652;42.716;23.218;2023-07-31T11:22:31;2.60;;;2.40;;
9234;SDS011;4652;42.716;23.218;2023-07-31T11:29:13;3.05;;;2.75;;
9234;SDS011;4652;42.716;23.218;2023-07-31T11:35:55;3.20;;;3.00;;
9234;SDS011;4652;42.716;23.218;2023-07-31T11:42:38;4.20;;;3.20;;
9234;SDS011;4652;42.716;23.218;2023-07-31T11:49:20;4.43;;;4.03;;
9234;SDS011;4652;42.716;23.218;2023-07-31T11:56:03;5.15;;;4.80;;
9234;SDS011;4652;42.716;23.218;2023-07-31T12:02:48;8.15;;;7.45;;
9234;SDS011;4652;42.716;23.218;2023-07-31T12:09:31;7.10;;;6.60;;
9234;SDS011;4652;42.716;23.218;2023-07-31T12:16:13;5.53;;;4.85;;
9234;SDS011;4652;42.716;23.218;2023-07-31T12:22:57;6.20;;;5.70;;
9234;SDS011;4652;42.716;23.218;2023-07-31T12:29:39;6.32;;;5.82;;
9234;SDS011;4652;42.716;23.218;2023-07-31T14:27:58;4.72;;;4.25;;
9234;SDS011;4652;42.716;23.218;2023-07-31T14:42:13;5.80;;;4.20;;
9234;SDS011;4652;42.716;23.218;2023-07-31T14:48:56;3.97;;;3.67;;
9234;SDS011;4652;42.716;23.218;2023-07-31T14:55:39;4.25;;;3.85;;
9234;SDS011;4652;42.716;23.218;2023-07-31T15:02:23;4.18;;;3.38;;
9234;SDS011;4652;42.716;23.218;2023-07-31T15:09:06;5.30;;;3.40;;
9234;SDS011;4652;42.716;23.218;2023-07-31T15:15:48;3.63;;;2.97;;
9234;SDS011;4652;42.716;23.218;2023-07-31T15:22:32;5.25;;;3.10;;
9234;SDS011;4652;42.716;23.218;2023-07-31T15:29:13;3.88;;;2.47;;
9234;SDS011;4652;42.716;23.218;2023-07-31T15:35:59;3.33;;;2.63;;
9234;SDS011;4652;42.716;23.218;2023-07-31T15:42:43;4.88;;;2.60;;
9234;SDS011;4652;42.716;23.218;2023-07-31T15:49:25;3.03;;;2.13;;
9234;SDS011;4652;42.716;23.218;2023-07-31T15:56:06;2.30;;;2.20;;
9234;SDS011;4652;42.716;23.218;2023-07-31T16:02:50;2.40;;;2.20;;
9234;SDS011;4652;42.716;23.218;2023-07-31T16:09:32;2.60;;;2.40;;
9234;SDS011;4652;42.716;23.218;2023-07-31T16:16:14;2.53;;;2.28;;
9234;SDS011;4652;42.716;23.218;2023-07-31T16:22:57;2.33;;;2.22;;
9234;SDS011;4652;42.716;23.218;2023-07-31T16:29:40;3.90;;;2.17;;
9234;SDS011;4652;42.716;23.218;2023-07-31T16:36:22;2.20;;;2.00;;
9234;SDS011;4652;42.716;23.218;2023-07-31T16:43:05;1.92;;;1.83;;
9234;SDS011;4652;42.716;23.218;2023-07-31T16:49:48;2.00;;;1.90;;
9234;SDS011;4652;42.716;23.218;2023-07-31T16:56:30;2.45;;;1.98;;
9234;SDS011;4652;42.716;23.218;2023-07-31T17:03:13;2.42;;;2.17;;
9234;SDS011;4652;42.716;23.218;2023-07-31T17:09:55;2.20;;;2.00;;
9234;SDS011;4652;42.716;23.218;2023-07-31T17:16:39;2.40;;;2.10;;
9234;SDS011;4652;42.716;23.218;2023-07-31T17:23:22;2.28;;;2.17;;
9234;SDS011;4652;42.716;23.218;2023-07-31T17:30:04;2.13;;;2.03;;
9234;SDS011;4652;42.716;23.218;2023-07-31T17:36:47;5.70;;;2.42;;
9234;SDS011;4652;42.716;23.218;2023-07-31T17:43:30;2.58;;;1.90;;
9234;SDS011;4652;42.716;23.218;2023-07-31T17:50:12;3.78;;;2.00;;
9234;SDS011;4652;42.716;23.218;2023-07-31T17:56:55;3.00;;;2.15;;
9234;SDS011;4652;42.716;23.218;2023-07-31T18:03:38;4.30;;;2.33;;
9234;SDS011;4652;42.716;23.218;2023-07-31T18:10:20;2.35;;;2.15;;
9234;SDS011;4652;42.716;23.218;2023-07-31T18:17:02;2.50;;;2.28;;
9234;SDS011;4652;42.716;23.218;2023-07-31T18:23:46;4.38;;;2.38;;
9234;SDS011;4652;42.716;23.218;2023-07-31T18:30:28;4.40;;;2.77;;
9234;SDS011;4652;42.716;23.218;2023-07-31T18:37:09;13.57;;;2.90;;
9234;SDS011;4652;42.716;23.218;2023-07-31T18:43:53;3.80;;;3.00;;
9234;SDS011;4652;42.716;23.218;2023-07-31T18:50:39;3.13;;;2.50;;
9234;SDS011;4652;42.716;23.218;2023-07-31T18:57:23;3.10;;;2.90;;
9234;SDS011;4652;42.716;23.218;2023-07-31T20:05:21;2.80;;;2.60;;
9234;SDS011;4652;42.716;23.218;2023-07-31T20:12:03;2.60;;;2.40;;
9234;SDS011;4652;42.716;23.218;2023-07-31T20:18:45;3.00;;;2.70;;
9234;SDS011;4652;42.716;23.218;2023-07-31T20:25:29;2.73;;;2.53;;
9234;SDS011;4652;42.716;23.218;2023-07-31T20:32:14;2.80;;;2.60;;
9234;SDS011;4652;42.716;23.218;2023-07-31T20:38:56;2.80;;;2.60;;
9234;SDS011;4652;42.716;23.218;2023-07-31T20:45:39;2.83;;;2.63;;
9234;SDS011;4652;42.716;23.218;2023-07-31T20:52:22;2.33;;;2.23;;
9234;SDS011;4652;42.716;23.218;2023-07-31T20:59:04;2.40;;;2.30;;
9234;SDS011;4652;42.716;23.218;2023-07-31T21:05:50;2.50;;;2.30;;
9234;SDS011;4652;42.716;23.218;2023-07-31T21:12:33;2.97;;;2.63;;
9234;SDS011;4652;42.716;23.218;2023-07-31T21:19:15;5.67;;;2.77;;
9234;SDS011;4652;42.716;23.218;2023-07-31T21:25:59;2.40;;;2.20;;
9234;SDS011;4652;42.716;23.218;2023-07-31T21:32:41;2.30;;;2.20;;
9234;SDS011;4652;42.716;23.218;2023-07-31T21:39:24;3.27;;;2.70;;
9234;SDS011;4652;42.716;23.218;2023-07-31T21:46:07;2.90;;;2.53;;
9234;SDS011;4652;42.716;23.218;2023-07-31T21:52:49;2.93;;;2.73;;
9234;SDS011;4652;42.716;23.218;2023-07-31T21:59:31;3.00;;;2.80;;
9234;SDS011;4652;42.716;23.218;2023-07-31T22:06:17;2.73;;;2.40;;
9234;SDS011;4652;42.716;23.218;2023-07-31T22:12:59;2.90;;;2.53;;
9234;SDS011;4652;42.716;23.218;2023-07-31T22:19:41;3.37;;;2.40;;
9234;SDS011;4652;42.716;23.218;2023-07-31T22:26:24;2.70;;;2.50;;
9234;SDS011;4652;42.716;23.218;2023-07-31T22:33:06;3.90;;;2.40;;
9234;SDS011;4652;42.716;23.218;2023-07-31T22:39:48;2.80;;;2.60;;
9234;SDS011;4652;42.716;23.218;2023-07-31T22:46:31;3.03;;;2.83;;
9234;SDS011;4652;42.716;23.218;2023-07-31T22:53:13;2.80;;;2.60;;
9234;SDS011;4652;42.716;23.218;2023-07-31T22:59:56;3.00;;;2.80;;
9234;SDS011;4652;42.716;23.218;2023-07-31T23:06:39;2.70;;;2.50;;
9234;SDS011;4652;42.716;23.218;2023-07-31T23:13:21;2.87;;;2.67;;
9234;SDS011;4652;42.716;23.218;2023-07-31T23:20:04;2.90;;;2.70;;
9234;SDS011;4652;42.716;23.218;2023-07-31T23:26:48;2.73;;;2.30;;
9234;SDS011;4652;42.716;23.218;2023-07-31T23:33:30;3.07;;;2.40;;
9234;SDS011;4652;42.716;23.218;2023-07-31T23:40:12;2.73;;;2.53;;
9234;SDS011;4652;42.716;23.218;2023-07-31T23:46:55;2.90;;;2.60;;
9234;SDS011;4652;42.716;23.218;2023-07-31T23:53:37;2.90;;;2.70;;
